Time;durP1;ratioP1;P1;durP2;ratioP2;P2;SDS_P1;SDS_P2;PMS_P1;PMS_P2;Temp;Humidity;BMP_temperature;BMP_pressure;BME280_temperature;BME280_humidity;BME280_pressure;Samples;Min_cycle;Max_cycle;Signal;HPM_P1;HPM_P2
2023/09/27 00:01:44;;;;;;;10.85;2.22;;;38.40;25.10;;;;;;5067820;28;20118;-62
2023/09/27 00:04:11;;;;;;;7.43;1.60;;;38.30;24.50;;;;;;5068061;28;20469;-64
2023/09/27 00:06:37;;;;;;;6.38;2.00;;;38.30;24.60;;;;;;5070354;28;20047;-63
2023/09/27 00:09:04;;;;;;;16.10;2.67;;;38.20;24.60;;;;;;5070237;28;20059;-68
2023/09/27 00:11:32;;;;;;;5.50;2.10;;;38.20;24.80;;;;;;5065196;28;20502;-69
2023/09/27 00:13:58;;;;;;;5.78;1.90;;;38.10;24.60;;;;;;5066414;28;20017;-68
2023/09/27 00:16:25;;;;;;;6.60;1.73;;;38.10;23.80;;;;;;5067139;28;20386;-65
2023/09/27 00:18:51;;;;;;;4.97;2.13;;;38.00;23.80;;;;;;5048674;28;20028;-64
2023/09/27 00:21:18;;;;;;;6.95;1.63;;;38.00;23.90;;;;;;5064773;28;20012;-68
2023/09/27 00:23:46;;;;;;;5.13;1.85;;;37.90;24.00;;;;;;5062704;28;20027;-65
2023/09/27 00:26:12;;;;;;;5.47;1.80;;;37.80;24.30;;;;;;5065218;28;20051;-66
2023/09/27 00:28:38;;;;;;;4.80;1.65;;;37.70;24.90;;;;;;5073730;28;20465;-68
2023/09/27 00:31:05;;;;;;;3.90;1.70;;;37.60;25.50;;;;;;5067214;28;20032;-68
2023/09/27 00:33:31;;;;;;;9.15;2.42;;;37.50;24.30;;;;;;5062781;28;20016;-68
2023/09/27 00:35:58;;;;;;;10.13;2.42;;;37.40;24.90;;;;;;5044781;28;20020;-70
2023/09/27 00:38:24;;;;;;;8.30;2.42;;;37.30;24.40;;;;;;5062038;28;20043;-68
2023/09/27 00:40:51;;;;;;;5.32;1.88;;;37.20;25.20;;;;;;5061307;28;20360;-65
2023/09/27 00:43:31;;;;;;;13.43;2.00;;;37.10;24.80;;;;;;5067106;28;20024;-61
2023/09/27 00:46:03;;;;;;;7.93;1.95;;;37.10;25.30;;;;;;5037301;28;20020;-63
2023/09/27 00:48:31;;;;;;;7.57;1.55;;;37.00;25.50;;;;;;5078401;28;20012;-65
2023/09/27 00:50:58;;;;;;;10.48;1.83;;;36.90;24.50;;;;;;5064298;28;20012;-66
2023/09/27 00:53:28;;;;;;;9.00;1.77;;;36.80;24.90;;;;;;5069950;28;20024;-63
2023/09/27 00:55:56;;;;;;;11.18;2.00;;;36.70;25.20;;;;;;5066087;28;20064;-60
2023/09/27 00:58:23;;;;;;;8.43;2.08;;;36.60;25.50;;;;;;5070765;28;20107;-67
2023/09/27 01:00:51;;;;;;;4.50;1.77;;;36.50;25.50;;;;;;5064754;28;20016;-65
2023/09/27 01:03:18;;;;;;;9.43;2.20;;;36.40;24.80;;;;;;5069382;28;20013;-61
2023/09/27 01:05:48;;;;;;;8.13;2.10;;;36.30;25.50;;;;;;5067402;28;20708;-61
2023/09/27 01:08:14;;;;;;;5.07;1.80;;;36.20;25.60;;;;;;5066244;28;20016;-60
2023/09/27 01:10:41;;;;;;;5.75;1.73;;;36.10;25.20;;;;;;5061578;28;20020;-63
2023/09/27 01:13:08;;;;;;;7.40;2.05;;;35.90;26.20;;;;;;5069906;28;20389;-64
2023/09/27 01:15:35;;;;;;;13.90;2.13;;;35.80;26.00;;;;;;5069050;28;20013;-62
2023/09/27 01:18:02;;;;;;;6.97;2.65;;;35.70;26.10;;;;;;5073590;28;20566;-63
2023/09/27 01:20:30;;;;;;;7.47;2.70;;;35.60;26.00;;;;;;5069787;28;20027;-62
2023/09/27 01:23:01;;;;;;;12.30;2.83;;;35.50;26.10;;;;;;5070379;28;20013;-63
2023/09/27 01:25:30;;;;;;;6.57;2.38;;;35.40;26.10;;;;;;5075385;28;20376;-61
2023/09/27 01:28:00;;;;;;;7.47;2.30;;;35.30;26.20;;;;;;5073268;28;20029;-60
2023/09/27 01:30:33;;;;;;;5.20;2.10;;;35.20;26.80;;;;;;5074542;28;20020;-63
2023/09/27 01:33:08;;;;;;;6.97;2.67;;;35.00;26.90;;;;;;5068824;28;20044;-62
2023/09/27 01:35:39;;;;;;;7.45;2.03;;;34.90;27.00;;;;;;5071314;28;21688;-63
2023/09/27 01:38:07;;;;;;;10.15;2.20;;;34.80;27.10;;;;;;5069844;28;20103;-64
2023/09/27 01:40:36;;;;;;;8.13;2.20;;;34.70;27.20;;;;;;5063165;28;20012;-64
2023/09/27 01:43:04;;;;;;;17.98;2.70;;;34.50;27.20;;;;;;5073476;28;20099;-62
2023/09/27 01:45:31;;;;;;;18.35;2.85;;;34.40;27.70;;;;;;5060912;28;20107;-65
2023/09/27 01:47:59;;;;;;;16.35;2.83;;;34.40;28.30;;;;;;5066903;28;20020;-63
2023/09/27 01:50:26;;;;;;;17.42;3.60;;;34.20;28.30;;;;;;5074440;28;20070;-61
2023/09/27 01:52:54;;;;;;;16.75;3.70;;;34.10;28.70;;;;;;5075391;28;20106;-65
2023/09/27 01:55:22;;;;;;;15.15;3.33;;;34.00;28.70;;;;;;5068989;28;20472;-63
2023/09/27 01:57:49;;;;;;;16.40;3.50;;;33.90;29.30;;;;;;5064263;28;20052;-63
2023/09/27 02:00:17;;;;;;;29.95;4.25;;;33.80;29.30;;;;;;5074046;28;20015;-62
2023/09/27 02:02:47;;;;;;;35.58;4.30;;;33.70;29.30;;;;;;5068346;28;20021;-62
2023/09/27 02:05:14;;;;;;;21.58;3.83;;;33.60;29.10;;;;;;5063196;28;20025;-65
2023/09/27 02:07:40;;;;;;;32.40;4.15;;;33.50;29.70;;;;;;5052353;28;20542;-61
2023/09/27 02:10:08;;;;;;;22.33;3.38;;;33.50;29.60;;;;;;5064905;28;20513;-62
2023/09/27 02:12:36;;;;;;;19.23;3.58;;;33.40;30.00;;;;;;5066989;28;20484;-62
2023/09/27 02:15:03;;;;;;;28.42;3.28;;;33.30;30.00;;;;;;5070842;28;20017;-63
2023/09/27 02:17:29;;;;;;;38.22;3.70;;;33.20;30.10;;;;;;5062969;28;20062;-62
2023/09/27 02:19:56;;;;;;;34.75;3.70;;;33.10;30.30;;;;;;5068287;28;20020;-63
2023/09/27 02:22:23;;;;;;;40.60;4.68;;;33.00;30.50;;;;;;5064671;28;20020;-61
2023/09/27 02:24:49;;;;;;;36.17;4.55;;;32.90;31.00;;;;;;5067202;28;20550;-62
2023/09/27 02:27:16;;;;;;;29.67;3.47;;;32.90;30.50;;;;;;5072983;28;20017;-64
2023/09/27 02:29:43;;;;;;;31.45;4.38;;;32.80;31.50;;;;;;5078154;28;20029;-60
2023/09/27 02:32:09;;;;;;;30.75;4.35;;;32.70;31.10;;;;;;5077835;28;20055;-61
2023/09/27 02:34:36;;;;;;;25.92;3.95;;;32.70;31.30;;;;;;5077307;28;20095;-61
2023/09/27 02:37:04;;;;;;;23.52;4.20;;;32.60;31.20;;;;;;5068615;28;20064;-62
2023/09/27 02:39:31;;;;;;;22.70;3.95;;;32.50;31.40;;;;;;5048029;28;20078;-61
2023/09/27 02:41:58;;;;;;;22.88;4.50;;;32.40;31.10;;;;;;5078368;28;20040;-63
2023/09/27 02:44:25;;;;;;;32.05;4.25;;;32.40;32.70;;;;;;5068412;28;20458;-61
2023/09/27 02:46:55;;;;;;;33.85;4.10;;;32.30;32.40;;;;;;5048532;28;20031;-62
2023/09/27 02:49:22;;;;;;;30.75;4.15;;;32.30;32.30;;;;;;5075525;28;20108;-62
2023/09/27 02:51:54;;;;;;;34.15;4.93;;;32.20;32.70;;;;;;5069915;28;20083;-63
2023/09/27 02:54:21;;;;;;;28.45;5.05;;;32.10;33.00;;;;;;5071144;28;20047;-63
2023/09/27 02:56:47;;;;;;;29.45;5.68;;;32.10;33.10;;;;;;5067578;28;20384;-64
2023/09/27 02:59:14;;;;;;;46.92;6.00;;;32.00;32.90;;;;;;5065803;28;20111;-64
2023/09/27 03:01:41;;;;;;;72.30;43.05;;;32.00;32.90;;;;;;5071289;28;20044;-63
2023/09/27 03:04:09;;;;;;;53.88;27.75;;;31.90;33.10;;;;;;5068311;28;20020;-62
2023/09/27 03:06:37;;;;;;;69.80;33.60;;;31.90;33.30;;;;;;5075832;28;20008;-61
2023/09/27 03:09:08;;;;;;;53.50;16.98;;;31.80;33.70;;;;;;5085437;28;20017;-63
2023/09/27 03:11:36;;;;;;;41.22;11.23;;;31.80;33.80;;;;;;5072967;28;20023;-61
2023/09/27 03:14:02;;;;;;;44.92;9.23;;;31.70;33.70;;;;;;5080821;28;20020;-61
2023/09/27 03:16:29;;;;;;;42.72;7.97;;;31.70;34.00;;;;;;5073270;28;20016;-63
2023/09/27 03:18:58;;;;;;;43.83;7.97;;;31.60;33.70;;;;;;5069821;28;20035;-63
2023/09/27 03:21:26;;;;;;;36.03;7.22;;;31.50;33.70;;;;;;5066892;28;20081;-62
2023/09/27 03:23:54;;;;;;;32.92;7.05;;;31.40;33.90;;;;;;5071530;28;20045;-60
2023/09/27 03:26:25;;;;;;;40.95;8.45;;;31.30;33.90;;;;;;5076710;28;20012;-64
2023/09/27 03:28:51;;;;;;;46.00;8.23;;;31.30;34.40;;;;;;5070849;28;20481;-62
2023/09/27 03:31:19;;;;;;;43.97;9.70;;;31.30;34.70;;;;;;5069147;28;20496;-63
2023/09/27 03:33:48;;;;;;;43.58;9.75;;;31.20;34.30;;;;;;5077670;28;20025;-61
2023/09/27 03:36:15;;;;;;;46.60;9.27;;;31.10;34.50;;;;;;5075365;28;20016;-62
2023/09/27 03:38:42;;;;;;;41.65;9.38;;;31.10;35.60;;;;;;5078216;28;20035;-64
2023/09/27 03:41:10;;;;;;;47.13;9.27;;;31.00;35.00;;;;;;5071499;28;20099;-62
2023/09/27 03:43:36;;;;;;;42.20;9.75;;;31.00;34.80;;;;;;5075976;28;20013;-62
2023/09/27 03:46:05;;;;;;;55.58;10.10;;;30.90;35.20;;;;;;5075012;28;20024;-61
2023/09/27 03:48:32;;;;;;;60.35;10.27;;;30.80;35.30;;;;;;5079039;28;20153;-62
2023/09/27 03:50:59;;;;;;;63.95;10.15;;;30.80;35.90;;;;;;5076373;28;20017;-63
2023/09/27 03:53:26;;;;;;;85.07;11.40;;;30.80;36.30;;;;;;5075561;28;20024;-64
2023/09/27 03:55:52;;;;;;;53.70;11.50;;;30.70;36.20;;;;;;5076636;28;20027;-63
2023/09/27 03:58:19;;;;;;;61.08;11.57;;;30.60;35.70;;;;;;5077477;28;20368;-62
2023/09/27 04:00:45;;;;;;;57.38;11.68;;;30.50;35.70;;;;;;5076689;28;20460;-64
2023/09/27 04:03:12;;;;;;;61.88;11.73;;;30.50;36.70;;;;;;5079829;28;20400;-63
2023/09/27 04:05:38;;;;;;;72.38;12.75;;;30.40;36.80;;;;;;5069346;28;20024;-63
2023/09/27 04:08:05;;;;;;;73.78;12.02;;;30.30;36.90;;;;;;5080070;28;20024;-61
2023/09/27 04:10:31;;;;;;;62.95;12.18;;;30.30;36.60;;;;;;5075597;28;20020;-64
2023/09/27 04:12:58;;;;;;;58.28;12.13;;;30.20;36.10;;;;;;5075046;28;20027;-64
2023/09/27 04:15:24;;;;;;;61.58;13.25;;;30.20;37.20;;;;;;5052752;28;20568;-59
2023/09/27 04:17:51;;;;;;;68.50;14.65;;;30.10;36.80;;;;;;5074518;28;20012;-64
2023/09/27 04:20:18;;;;;;;58.92;13.00;;;30.10;36.20;;;;;;5073008;28;20012;-63
2023/09/27 04:22:47;;;;;;;62.15;15.32;;;30.00;37.30;;;;;;5049777;28;20517;-59
2023/09/27 04:25:15;;;;;;;56.95;14.65;;;30.00;37.30;;;;;;5074549;28;20020;-61
2023/09/27 04:27:49;;;;;;;66.90;15.98;;;29.90;37.40;;;;;;5056558;28;20388;-62
2023/09/27 04:30:19;;;;;;;53.03;13.07;;;29.90;37.70;;;;;;5070976;28;20020;-62
2023/09/27 04:32:50;;;;;;;58.45;13.50;;;29.80;37.70;;;;;;5058739;28;20165;-61
2023/09/27 04:35:17;;;;;;;48.65;12.40;;;29.80;37.90;;;;;;5068090;28;20008;-59
2023/09/27 04:37:44;;;;;;;63.15;13.57;;;29.70;37.30;;;;;;5071146;28;20392;-64
2023/09/27 04:40:11;;;;;;;53.40;13.68;;;29.70;37.70;;;;;;5069953;28;20023;-62
2023/09/27 04:42:38;;;;;;;54.45;13.18;;;29.70;37.60;;;;;;5071968;28;20009;-62
2023/09/27 04:45:06;;;;;;;63.55;13.55;;;29.60;37.30;;;;;;5071002;28;20414;-60
2023/09/27 04:47:33;;;;;;;60.47;12.95;;;29.60;37.50;;;;;;5072510;28;20012;-61
2023/09/27 04:49:59;;;;;;;66.97;14.02;;;29.50;38.50;;;;;;5066266;28;20024;-61
2023/09/27 04:52:26;;;;;;;59.05;13.82;;;29.50;38.40;;;;;;5078673;28;20119;-61
2023/09/27 04:54:58;;;;;;;65.25;13.32;;;29.50;38.40;;;;;;5073216;28;20033;-60
2023/09/27 04:57:25;;;;;;;54.85;11.70;;;29.40;38.30;;;;;;5063994;28;20116;-63
2023/09/27 04:59:52;;;;;;;52.15;12.32;;;29.40;37.90;;;;;;5065560;28;20024;-59
2023/09/27 05:02:21;;;;;;;53.63;11.77;;;29.40;38.70;;;;;;5069878;28;20020;-61
2023/09/27 05:04:48;;;;;;;60.60;12.00;;;29.30;38.20;;;;;;5069009;28;20485;-61
2023/09/27 05:07:21;;;;;;;53.30;11.20;;;29.30;38.10;;;;;;5070783;28;20108;-62
2023/09/27 05:09:48;;;;;;;60.35;11.98;;;29.20;37.90;;;;;;5065656;28;20021;-63
2023/09/27 05:12:15;;;;;;;81.80;13.70;;;29.20;38.80;;;;;;5068904;28;20099;-61
2023/09/27 05:14:41;;;;;;;77.68;12.35;;;29.20;39.30;;;;;;5075385;28;20025;-62
2023/09/27 05:17:08;;;;;;;87.28;13.70;;;29.20;38.50;;;;;;5068700;28;20012;-61
2023/09/27 05:19:35;;;;;;;73.72;12.73;;;29.20;38.30;;;;;;5073386;28;20028;-62
2023/09/27 05:22:01;;;;;;;165.20;15.50;;;29.10;38.90;;;;;;5075180;28;20016;-62
2023/09/27 05:24:28;;;;;;;178.85;15.25;;;29.10;38.80;;;;;;5074216;28;20015;-63
2023/09/27 05:26:59;;;;;;;83.22;12.80;;;29.10;39.50;;;;;;5068954;28;20065;-62
2023/09/27 05:29:25;;;;;;;69.32;11.57;;;29.10;39.30;;;;;;5073638;28;20472;-61
2023/09/27 05:31:51;;;;;;;104.80;13.85;;;29.00;39.10;;;;;;5068719;28;20159;-62
2023/09/27 05:34:18;;;;;;;96.15;13.10;;;29.00;39.40;;;;;;5071221;28;20020;-63
2023/09/27 05:36:44;;;;;;;59.53;11.32;;;29.00;39.20;;;;;;5075380;28;20171;-62
2023/09/27 05:39:11;;;;;;;45.17;10.70;;;29.00;38.40;;;;;;5072903;28;20121;-63
2023/09/27 05:41:38;;;;;;;50.95;9.70;;;29.00;37.50;;;;;;5064346;28;20050;-63
2023/09/27 05:44:05;;;;;;;42.35;8.43;;;28.90;36.90;;;;;;5070351;28;20016;-64
2023/09/27 05:46:33;;;;;;;43.03;8.75;;;28.90;36.10;;;;;;5049308;28;20024;-63
2023/09/27 05:49:04;;;;;;;41.42;8.27;;;28.90;35.20;;;;;;5067674;28;20025;-63
2023/09/27 05:51:31;;;;;;;41.88;7.85;;;28.90;35.20;;;;;;5066674;28;20021;-64
2023/09/27 05:53:58;;;;;;;30.27;7.60;;;28.90;35.20;;;;;;5069498;28;20099;-64
2023/09/27 05:56:25;;;;;;;30.20;6.82;;;28.90;35.10;;;;;;5069193;28;20163;-62
2023/09/27 05:58:51;;;;;;;38.47;8.13;;;28.90;34.60;;;;;;5071965;28;20024;-65
2023/09/27 06:01:21;;;;;;;28.95;6.45;;;28.90;35.70;;;;;;5070108;28;20095;-65
2023/09/27 06:03:47;;;;;;;21.45;6.10;;;28.90;35.70;;;;;;5056514;28;20385;-64
2023/09/27 06:06:14;;;;;;;33.75;6.10;;;28.80;36.40;;;;;;5068133;28;20590;-62
2023/09/27 06:08:41;;;;;;;27.48;6.40;;;28.80;36.50;;;;;;5064435;28;20019;-64
2023/09/27 06:11:09;;;;;;;25.55;6.38;;;28.80;36.80;;;;;;5074350;28;20013;-64
2023/09/27 06:13:37;;;;;;;33.90;6.38;;;28.70;36.40;;;;;;5074218;28;20464;-64
2023/09/27 06:16:11;;;;;;;27.80;6.22;;;28.60;36.50;;;;;;5072486;28;20035;-64
2023/09/27 06:18:38;;;;;;;27.42;6.32;;;28.70;37.10;;;;;;5029849;28;20067;-63
2023/09/27 06:21:04;;;;;;;26.60;5.88;;;28.60;37.00;;;;;;5070444;28;20093;-62
2023/09/27 06:23:30;;;;;;;15.02;6.07;;;28.60;37.00;;;;;;5064838;28;20017;-63
2023/09/27 06:25:57;;;;;;;19.75;6.43;;;28.50;37.50;;;;;;5070726;28;20009;-62
2023/09/27 06:28:23;;;;;;;33.78;7.55;;;28.50;37.80;;;;;;5070387;28;20020;-65
2023/09/27 06:30:50;;;;;;;26.17;6.28;;;28.40;38.30;;;;;;5073779;28;20152;-64
2023/09/27 06:33:16;;;;;;;29.35;7.22;;;28.40;37.90;;;;;;5054500;28;20020;-63
2023/09/27 06:35:42;;;;;;;32.25;7.50;;;28.40;38.60;;;;;;5075637;28;20024;-61
2023/09/27 06:38:09;;;;;;;32.88;7.40;;;28.40;38.70;;;;;;5057008;28;20032;-62
2023/09/27 06:40:35;;;;;;;24.25;7.53;;;28.40;38.50;;;;;;5075354;28;20692;-64
2023/09/27 06:43:04;;;;;;;29.58;7.72;;;28.50;38.30;;;;;;5078052;28;20065;-62
2023/09/27 06:45:32;;;;;;;31.73;7.35;;;28.60;38.70;;;;;;5073195;28;20034;-64
2023/09/27 06:47:58;;;;;;;24.40;7.15;;;28.60;39.00;;;;;;5070513;28;20024;-62
2023/09/27 06:50:25;;;;;;;22.90;7.35;;;28.60;39.00;;;;;;5075230;28;20028;-62
2023/09/27 06:52:51;;;;;;;26.58;7.53;;;28.60;39.60;;;;;;5080551;28;20058;-64
2023/09/27 06:55:18;;;;;;;21.52;6.72;;;28.70;39.70;;;;;;5075504;28;21339;-64
2023/09/27 06:57:48;;;;;;;20.70;6.78;;;28.70;39.90;;;;;;5072042;28;20465;-62
2023/09/27 07:00:24;;;;;;;23.83;6.63;;;28.70;40.10;;;;;;5072648;28;20027;-63
2023/09/27 07:02:51;;;;;;;15.05;6.97;;;28.70;40.10;;;;;;5076311;28;20070;-64
2023/09/27 07:05:21;;;;;;;21.02;7.18;;;28.70;40.40;;;;;;5069070;28;20392;-62
2023/09/27 07:07:48;;;;;;;18.85;6.75;;;28.70;40.40;;;;;;5071572;28;20361;-62
2023/09/27 07:10:14;;;;;;;15.82;6.05;;;28.80;40.00;;;;;;5071628;28;20016;-63
2023/09/27 07:12:41;;;;;;;19.10;6.95;;;28.90;39.70;;;;;;5073316;28;20143;-63
2023/09/27 07:15:10;;;;;;;13.35;5.70;;;29.00;39.70;;;;;;5072461;28;20111;-66
2023/09/27 07:17:38;;;;;;;13.77;5.90;;;29.00;39.70;;;;;;5076916;28;20153;-63
2023/09/27 07:20:13;;;;;;;14.30;5.65;;;29.10;39.20;;;;;;5075018;28;20025;-66
2023/09/27 07:22:40;;;;;;;11.90;5.35;;;29.00;39.30;;;;;;5069691;28;20021;-63
2023/09/27 07:25:12;;;;;;;11.18;5.03;;;29.00;39.50;;;;;;5072280;28;20024;-64
2023/09/27 07:27:42;;;;;;;12.60;5.40;;;29.00;38.80;;;;;;5074524;28;20009;-62
2023/09/27 07:30:17;;;;;;;10.00;4.40;;;29.00;39.60;;;;;;5074128;28;20025;-62
2023/09/27 07:32:45;;;;;;;11.05;4.38;;;29.00;37.20;;;;;;5073218;28;20016;-62
2023/09/27 07:35:14;;;;;;;7.97;4.15;;;29.00;37.60;;;;;;5070824;28;20012;-65
2023/09/27 07:37:41;;;;;;;7.18;3.58;;;28.90;37.50;;;;;;5072880;28;20059;-61
2023/09/27 07:40:12;;;;;;;5.45;4.20;;;28.90;37.50;;;;;;5075545;28;20024;-63
2023/09/27 07:42:43;;;;;;;11.10;4.22;;;28.90;37.60;;;;;;5074558;28;20016;-62
2023/09/27 07:45:21;;;;;;;6.15;3.60;;;28.80;37.00;;;;;;5070676;28;20016;-63
2023/09/27 07:47:50;;;;;;;5.97;3.58;;;28.90;37.30;;;;;;5072031;28;20027;-66
2023/09/27 07:50:18;;;;;;;10.63;4.07;;;28.80;37.00;;;;;;5048658;28;20035;-62
2023/09/27 07:52:44;;;;;;;10.23;4.18;;;28.70;36.90;;;;;;5067907;28;20147;-63
2023/09/27 07:55:14;;;;;;;9.95;4.00;;;28.70;37.10;;;;;;5072620;28;20493;-62
2023/09/27 07:57:44;;;;;;;12.25;3.97;;;28.60;36.60;;;;;;5067102;28;20029;-61
2023/09/27 08:00:15;;;;;;;14.43;3.95;;;28.60;36.90;;;;;;5078054;28;20472;-63
2023/09/27 08:02:45;;;;;;;6.72;4.07;;;28.50;36.70;;;;;;5075750;28;20028;-64
2023/09/27 08:05:16;;;;;;;9.18;4.05;;;28.60;37.40;;;;;;5067992;28;20036;-62
2023/09/27 08:07:46;;;;;;;13.68;4.10;;;28.50;37.70;;;;;;5071446;28;20012;-64
2023/09/27 08:10:13;;;;;;;10.85;4.57;;;28.40;37.60;;;;;;5056151;28;20492;-65
2023/09/27 08:12:40;;;;;;;12.32;4.53;;;28.40;37.60;;;;;;5061326;28;20483;-63
2023/09/27 08:15:08;;;;;;;11.85;4.47;;;28.30;38.10;;;;;;5068045;28;20406;-60
2023/09/27 08:17:35;;;;;;;10.82;4.15;;;28.20;38.70;;;;;;5069154;28;20033;-60
2023/09/27 08:20:06;;;;;;;9.32;4.05;;;28.10;40.20;;;;;;5067115;28;20045;-62
2023/09/27 08:22:34;;;;;;;9.70;4.15;;;28.00;39.70;;;;;;5070965;28;20021;-63
2023/09/27 08:25:01;;;;;;;9.77;4.15;;;28.00;39.60;;;;;;5075643;28;20110;-65
2023/09/27 08:27:27;;;;;;;16.40;4.65;;;27.90;39.40;;;;;;5070891;28;20612;-63
2023/09/27 08:29:54;;;;;;;10.77;4.43;;;27.80;39.90;;;;;;5075322;28;20149;-63
2023/09/27 08:32:21;;;;;;;12.98;4.35;;;27.80;40.10;;;;;;5072818;28;20013;-62
2023/09/27 08:34:48;;;;;;;9.10;4.28;;;27.70;40.70;;;;;;5070371;28;20024;-61
2023/09/27 08:37:14;;;;;;;11.02;4.53;;;27.60;40.20;;;;;;5068122;28;20017;-62
2023/09/27 08:39:42;;;;;;;10.15;4.40;;;27.60;41.00;;;;;;5066183;28;20984;-61
2023/09/27 08:42:09;;;;;;;12.65;4.25;;;27.60;39.70;;;;;;5072866;28;20024;-62
2023/09/27 08:44:36;;;;;;;7.30;4.40;;;27.50;39.50;;;;;;5074910;28;20027;-63
2023/09/27 08:47:03;;;;;;;12.40;4.50;;;27.60;39.80;;;;;;5073395;28;20020;-61
2023/09/27 08:49:29;;;;;;;16.08;5.03;;;27.50;40.40;;;;;;5077210;28;20098;-62
2023/09/27 08:52:02;;;;;;;16.50;4.13;;;27.50;40.90;;;;;;5068617;28;20020;-63
2023/09/27 08:54:28;;;;;;;16.60;4.85;;;27.40;41.00;;;;;;5076311;28;20380;-63
2023/09/27 08:56:56;;;;;;;9.18;4.30;;;27.40;41.30;;;;;;5065827;28;20054;-64
2023/09/27 08:59:23;;;;;;;11.73;4.97;;;27.40;41.30;;;;;;5070078;28;20017;-63
2023/09/27 09:01:52;;;;;;;13.30;4.60;;;27.40;41.30;;;;;;5073760;28;20503;-61
2023/09/27 09:04:19;;;;;;;12.57;4.90;;;27.40;40.90;;;;;;5076774;28;20028;-63
2023/09/27 09:06:45;;;;;;;14.63;4.95;;;27.40;40.90;;;;;;5073751;28;20413;-61
2023/09/27 09:09:12;;;;;;;11.45;5.10;;;27.40;40.80;;;;;;5067077;28;20112;-64
2023/09/27 09:11:54;;;;;;;11.38;5.18;;;27.40;40.80;;;;;;5077019;28;20012;-61
2023/09/27 09:14:37;;;;;;;16.05;5.20;;;27.30;40.90;;;;;;5074348;28;20110;-60
2023/09/27 09:17:07;;;;;;;10.95;4.75;;;27.30;40.40;;;;;;5073330;28;20020;-60
2023/09/27 09:19:37;;;;;;;13.00;5.28;;;27.30;40.20;;;;;;5071256;28;20441;-64
2023/09/27 09:22:14;;;;;;;13.35;5.13;;;27.30;40.00;;;;;;5070718;28;20013;-61
2023/09/27 09:24:43;;;;;;;20.52;5.85;;;27.30;39.90;;;;;;5069579;28;20019;-61
2023/09/27 09:27:13;;;;;;;15.95;5.50;;;27.30;39.90;;;;;;5065980;28;20021;-62
2023/09/27 09:29:50;;;;;;;10.82;4.88;;;27.30;40.00;;;;;;5073303;28;20020;-61
2023/09/27 09:32:22;;;;;;;12.30;5.20;;;27.30;40.20;;;;;;5064633;28;20028;-61
2023/09/27 09:34:50;;;;;;;9.77;5.13;;;27.30;40.60;;;;;;5071964;28;20017;-62
2023/09/27 09:37:30;;;;;;;10.13;5.32;;;27.30;40.90;;;;;;5071832;28;20039;-61
2023/09/27 09:40:14;;;;;;;14.85;5.35;;;27.30;41.00;;;;;;5068793;28;20111;-61
2023/09/27 09:42:42;;;;;;;9.68;5.68;;;27.30;41.00;;;;;;5078018;28;20052;-61
2023/09/27 09:45:12;;;;;;;12.90;6.50;;;27.30;40.90;;;;;;5067804;28;20028;-62
2023/09/27 09:47:43;;;;;;;17.08;5.40;;;27.30;40.70;;;;;;5064287;28;20017;-62
2023/09/27 09:50:17;;;;;;;14.23;5.68;;;27.40;40.60;;;;;;5071163;28;20048;-63
2023/09/27 09:52:57;;;;;;;10.88;6.00;;;27.40;40.90;;;;;;5063875;28;20389;-61
2023/09/27 09:55:25;;;;;;;10.00;5.18;;;27.40;40.50;;;;;;5071479;28;20029;-61
2023/09/27 09:58:20;;;;;;;13.82;6.00;;;27.40;40.10;;;;;;5071886;28;20038;-62
2023/09/27 10:00:51;;;;;;;11.77;5.43;;;27.40;40.20;;;;;;5059028;28;20045;-61
2023/09/27 10:03:21;;;;;;;9.13;5.03;;;27.30;40.30;;;;;;5069883;28;20527;-62
2023/09/27 10:05:51;;;;;;;8.65;5.05;;;27.20;40.50;;;;;;5071471;28;20161;-62
2023/09/27 10:08:20;;;;;;;13.57;6.03;;;27.20;40.50;;;;;;5072242;28;20024;-62
2023/09/27 10:10:47;;;;;;;6.97;4.70;;;27.20;40.40;;;;;;5076214;28;20397;-60
2023/09/27 10:13:14;;;;;;;11.90;5.40;;;27.10;41.20;;;;;;5070657;28;20020;-61
2023/09/27 10:15:42;;;;;;;9.07;5.35;;;27.10;41.20;;;;;;5070119;28;20042;-61
2023/09/27 10:18:23;;;;;;;16.45;6.18;;;27.10;41.30;;;;;;5072178;28;20031;-61
2023/09/27 10:21:04;;;;;;;16.88;5.88;;;27.10;40.80;;;;;;5073851;28;20054;-62
2023/09/27 10:23:46;;;;;;;17.83;5.78;;;27.00;40.70;;;;;;5071978;28;20069;-62
2023/09/27 10:26:37;;;;;;;14.10;5.72;;;26.80;41.30;;;;;;5076108;28;20053;-65
2023/09/27 10:29:03;;;;;;;18.40;5.68;;;26.90;41.10;;;;;;5068591;28;20086;-62
2023/09/27 10:31:31;;;;;;;10.23;6.07;;;26.90;40.70;;;;;;5056647;28;20463;-62
2023/09/27 10:33:57;;;;;;;18.55;6.10;;;26.80;41.00;;;;;;5078472;28;20506;-61
2023/09/27 10:36:24;;;;;;;14.60;6.13;;;26.80;41.10;;;;;;5076079;28;20105;-62
2023/09/27 10:38:50;;;;;;;8.82;5.53;;;26.70;41.30;;;;;;5078449;28;20055;-64
2023/09/27 10:41:38;;;;;;;10.95;5.40;;;26.70;41.20;;;;;;5076786;28;20020;-60
2023/09/27 10:44:05;;;;;;;12.40;5.70;;;26.70;41.50;;;;;;5076312;28;20058;-62
2023/09/27 10:46:41;;;;;;;16.70;6.18;;;26.60;43.50;;;;;;5075572;28;20629;-63
2023/09/27 10:49:08;;;;;;;10.80;5.32;;;26.50;43.40;;;;;;5069561;28;20119;-62
2023/09/27 10:51:35;;;;;;;11.63;5.75;;;26.40;43.30;;;;;;5072442;28;20044;-63
2023/09/27 10:54:10;;;;;;;20.92;5.95;;;26.30;43.60;;;;;;5074931;28;20050;-63
2023/09/27 10:56:41;;;;;;;10.43;5.70;;;26.30;43.50;;;;;;5072148;28;20073;-62
2023/09/27 10:59:08;;;;;;;11.57;5.60;;;26.10;43.50;;;;;;5074796;28;20063;-62
2023/09/27 11:01:35;;;;;;;14.82;5.72;;;26.00;43.50;;;;;;5071594;28;20043;-63
2023/09/27 11:04:04;;;;;;;17.23;5.57;;;25.90;43.70;;;;;;5069124;28;20062;-61
2023/09/27 11:06:31;;;;;;;12.98;5.85;;;25.90;44.00;;;;;;5072231;28;20104;-62
2023/09/27 11:09:08;;;;;;;28.48;6.90;;;25.90;44.60;;;;;;5077505;28;20085;-62
2023/09/27 11:11:35;;;;;;;19.52;6.88;;;25.70;44.20;;;;;;5068154;28;20023;-61
2023/09/27 11:14:01;;;;;;;18.05;6.32;;;25.70;44.60;;;;;;5073751;28;20405;-62
2023/09/27 11:16:29;;;;;;;16.02;6.95;;;25.60;45.20;;;;;;5073323;28;20071;-62
2023/09/27 11:18:58;;;;;;;27.52;7.97;;;25.60;45.70;;;;;;5083786;28;20090;-62
2023/09/27 11:21:26;;;;;;;25.77;8.25;;;25.60;45.60;;;;;;5075896;28;20098;-61
2023/09/27 11:24:02;;;;;;;26.83;8.95;;;25.50;45.90;;;;;;5070698;28;20047;-62
2023/09/27 11:26:31;;;;;;;34.97;9.35;;;25.40;46.10;;;;;;5069932;28;20052;-64
2023/09/27 11:29:07;;;;;;;30.30;10.45;;;25.30;45.80;;;;;;5073170;28;20429;-61
2023/09/27 11:31:35;;;;;;;26.65;9.15;;;25.20;46.00;;;;;;5073970;28;20516;-62
2023/09/27 11:34:19;;;;;;;24.80;10.98;;;25.20;45.90;;;;;;5079623;28;20427;-61
2023/09/27 11:36:47;;;;;;;32.13;11.45;;;25.20;46.10;;;;;;5074848;28;20561;-61
2023/09/27 11:39:18;;;;;;;43.10;11.60;;;25.10;47.30;;;;;;5073757;28;20056;-61
2023/09/27 11:41:45;;;;;;;48.78;12.50;;;25.00;46.30;;;;;;5075464;28;20045;-62
2023/09/27 11:44:23;;;;;;;34.00;11.48;;;25.00;46.40;;;;;;5076710;28;20050;-60
2023/09/27 11:46:50;;;;;;;28.55;11.70;;;25.00;46.70;;;;;;5074741;28;20131;-62
2023/09/27 11:49:25;;;;;;;32.20;12.52;;;24.90;47.10;;;;;;5074088;28;20050;-64
2023/09/27 11:51:51;;;;;;;33.65;12.93;;;24.90;47.20;;;;;;5073836;28;20105;-61
2023/09/27 11:54:18;;;;;;;34.50;13.30;;;24.90;47.30;;;;;;5073726;28;20037;-62
2023/09/27 11:56:44;;;;;;;40.13;14.27;;;24.80;47.00;;;;;;5076567;28;20076;-62
2023/09/27 11:59:10;;;;;;;29.85;13.43;;;24.90;46.90;;;;;;5074745;28;20044;-62
2023/09/27 12:01:37;;;;;;;36.88;14.05;;;24.80;47.90;;;;;;5070517;28;20052;-61
2023/09/27 12:04:04;;;;;;;37.28;13.65;;;24.70;47.30;;;;;;5080617;28;20046;-60
2023/09/27 12:06:31;;;;;;;32.10;13.55;;;24.70;47.30;;;;;;5076413;28;20158;-62
2023/09/27 12:09:05;;;;;;;40.17;14.60;;;24.50;47.40;;;;;;5073760;28;20500;-61
2023/09/27 12:11:32;;;;;;;38.65;14.25;;;24.50;47.20;;;;;;5075136;28;20330;-61
2023/09/27 12:13:58;;;;;;;39.08;13.90;;;24.50;47.90;;;;;;5071584;28;20053;-61
2023/09/27 12:16:26;;;;;;;33.20;14.10;;;24.50;47.20;;;;;;5071601;28;20134;-62
2023/09/27 12:18:52;;;;;;;38.75;13.85;;;24.50;47.30;;;;;;5067756;28;20054;-62
2023/09/27 12:21:18;;;;;;;44.25;13.93;;;24.40;47.50;;;;;;5068385;28;20412;-62
2023/09/27 12:23:45;;;;;;;37.22;13.65;;;24.50;47.00;;;;;;5077718;28;20183;-63
2023/09/27 12:26:12;;;;;;;46.22;14.27;;;24.60;47.30;;;;;;5053844;28;20583;-62
2023/09/27 12:28:38;;;;;;;30.30;12.43;;;24.50;47.90;;;;;;5072657;28;20390;-63
2023/09/27 12:31:06;;;;;;;41.45;14.38;;;24.50;47.60;;;;;;5074528;28;20080;-61
2023/09/27 12:33:35;;;;;;;37.97;13.93;;;24.50;47.60;;;;;;5075140;28;20054;-62
2023/09/27 12:36:02;;;;;;;33.50;12.70;;;24.50;47.70;;;;;;5074063;28;20140;-61
2023/09/27 12:38:28;;;;;;;33.70;12.52;;;24.50;47.60;;;;;;5075620;28;20090;-61
2023/09/27 12:40:55;;;;;;;31.58;12.57;;;24.40;47.80;;;;;;5078071;28;20138;-61
2023/09/27 12:43:21;;;;;;;35.85;13.55;;;24.40;48.00;;;;;;5067857;28;20046;-61